createdAt,value
2019-04-26T03:03:17.235Z,94.20
2019-04-26T03:05:45.803Z,94.30
2019-04-26T03:08:16.364Z,94.40
2019-04-26T03:10:53.935Z,94.20
2019-04-26T03:13:40.214Z,94.40
2019-04-26T03:16:29.073Z,94.00
2019-04-26T03:19:10.831Z,94.90
2019-04-26T03:21:58.855Z,94.60
2019-04-26T03:24:35.069Z,94.00
2019-04-26T03:27:43.500Z,94.80
2019-04-26T03:30:35.333Z,94.20
2019-04-26T03:33:12.169Z,94.50
2019-04-26T03:36:19.055Z,94.40
2019-04-26T03:39:36.264Z,95.00
2019-04-26T03:42:25.583Z,94.60
2019-04-26T03:45:15.387Z,95.30
2019-04-26T03:47:52.227Z,95.00
2019-04-26T03:50:29.941Z,94.70
2019-04-26T03:53:27.486Z,95.00
2019-04-26T03:57:04.588Z,94.70
2019-04-26T04:00:09.731Z,94.90
2019-04-26T04:02:50.658Z,94.60
2019-04-26T04:05:32.091Z,94.60
2019-04-26T04:08:02.031Z,94.70
2019-04-26T04:10:37.679Z,95.00
2019-04-26T04:13:18.480Z,95.00
2019-04-26T04:15:48.806Z,95.00
2019-04-26T04:18:22.434Z,95.40
2019-04-26T04:21:24.273Z,95.30
2019-04-26T04:24:08.230Z,95.00
2019-04-26T04:27:10.272Z,95.10
2019-04-26T04:29:55.804Z,94.90
2019-04-26T04:33:05.771Z,95.20
2019-04-26T04:35:36.358Z,95.10
2019-04-26T04:38:15.116Z,95.00
2019-04-26T04:41:11.229Z,94.70
2019-04-26T04:43:48.782Z,94.90
2019-04-26T04:47:22.762Z,94.70
2019-04-26T04:50:02.111Z,94.80
2019-04-26T04:52:46.409Z,94.70
2019-04-26T04:55:21.870Z,94.70
2019-04-26T04:58:05.532Z,94.40
2019-04-26T05:01:14.694Z,94.40
2019-04-26T05:04:12.990Z,94.10
2019-04-26T05:07:16.590Z,94.30
2019-04-26T05:09:55.453Z,94.20
2019-04-26T05:12:33.439Z,94.10
2019-04-26T05:15:48.472Z,94.20
2019-04-26T05:18:27.858Z,94.00
2019-04-26T05:21:23.290Z,93.90
2019-04-26T05:24:34.659Z,93.90
2019-04-26T05:27:46.805Z,93.90
2019-04-26T05:31:10.114Z,93.60
2019-04-26T05:33:54.585Z,93.70
2019-04-26T05:36:51.013Z,93.50
2019-04-26T05:39:33.698Z,93.40
2019-04-26T05:42:48.410Z,93.90
2019-04-26T05:46:11.764Z,93.40
2019-04-26T05:48:55.704Z,93.00
2019-04-26T05:52:04.290Z,93.10
2019-04-26T05:55:11.685Z,92.90
2019-04-26T05:57:56.340Z,92.80
2019-04-26T06:00:50.436Z,92.10
2019-04-26T06:03:59.038Z,91.90
2019-04-26T06:06:32.814Z,92.10
2019-04-26T06:09:30.214Z,91.40
2019-04-26T06:12:18.116Z,91.60
2019-04-26T06:15:24.690Z,91.60
2019-04-26T06:18:21.618Z,91.60
2019-04-26T06:21:16.322Z,91.00
2019-04-26T06:23:56.152Z,90.90
2019-04-26T06:27:13.785Z,90.10
2019-04-26T06:29:46.047Z,90.20
2019-04-26T06:32:29.000Z,90.10
2019-04-26T06:35:14.594Z,89.00
2019-04-26T06:37:55.362Z,89.70
2019-04-26T06:40:41.834Z,87.80
2019-04-26T06:43:17.347Z,88.40
2019-04-26T06:46:08.947Z,88.20
2019-04-26T06:49:14.371Z,86.70
2019-04-26T06:51:47.886Z,86.90
2019-04-26T06:54:22.620Z,86.70
2019-04-26T06:57:46.450Z,87.80
2019-04-26T07:00:25.487Z,86.00
2019-04-26T07:03:27.986Z,86.60
2019-04-26T07:05:58.934Z,87.50
2019-04-26T07:08:57.058Z,85.50
2019-04-26T07:12:13.954Z,85.70
2019-04-26T07:15:28.302Z,85.50
2019-04-26T07:18:08.513Z,85.40
2019-04-26T07:20:47.602Z,84.40
2019-04-26T07:24:16.546Z,84.50
2019-04-26T07:27:35.500Z,83.30
2019-04-26T07:30:22.763Z,83.40
2019-04-26T07:33:51.677Z,82.80
2019-04-26T07:36:36.999Z,84.40
2019-04-26T07:39:53.126Z,83.40
2019-04-26T07:42:51.890Z,82.20
2019-04-26T07:45:44.051Z,82.50
2019-04-26T07:48:41.406Z,83.10
2019-04-26T07:51:57.089Z,81.40
2019-04-26T07:55:00.923Z,80.70
2019-04-26T07:58:20.070Z,77.80
2019-04-26T08:00:56.423Z,78.70
2019-04-26T08:03:43.289Z,75.90
2019-04-26T08:06:17.023Z,72.60
2019-04-26T08:08:49.203Z,72.90
2019-04-26T08:11:22.792Z,73.30
2019-04-26T08:14:01.628Z,74.10
2019-04-26T08:16:48.003Z,75.00
2019-04-26T08:19:18.399Z,75.40
2019-04-26T08:21:49.089Z,73.20
2019-04-26T08:24:22.392Z,72.70
2019-04-26T08:27:23.242Z,70.90
2019-04-26T08:29:51.646Z,72.10
2019-04-26T08:32:22.311Z,70.70
2019-04-26T08:34:56.686Z,66.70
2019-04-26T08:37:36.460Z,63.80
2019-04-26T08:40:04.466Z,61.80
2019-04-26T08:42:39.230Z,61.80
2019-04-26T08:45:22.847Z,62.00
2019-04-26T08:48:10.415Z,61.00
2019-04-26T08:50:49.518Z,62.90
2019-04-26T08:53:18.166Z,59.90
2019-04-26T08:55:47.014Z,61.90
2019-04-26T08:58:15.579Z,62.50
2019-04-26T09:01:06.386Z,60.00
2019-04-26T09:03:41.287Z,59.20
2019-04-26T09:06:19.410Z,55.00
2019-04-26T09:08:48.071Z,56.10
2019-04-26T09:11:25.644Z,58.50
2019-04-26T09:13:49.990Z,61.40
2019-04-26T09:16:20.463Z,64.80
2019-04-26T09:18:54.164Z,66.60
2019-04-26T09:21:28.983Z,70.70
2019-04-26T09:24:15.791Z,70.20
2019-04-26T09:26:48.513Z,70.80
2019-04-26T09:29:36.331Z,70.50
2019-04-26T09:32:27.582Z,71.90
2019-04-26T09:34:54.486Z,72.50
2019-04-26T09:37:23.051Z,71.30
2019-04-26T09:39:51.643Z,73.40
2019-04-26T09:42:27.216Z,74.70
2019-04-26T09:45:05.411Z,75.10
2019-04-26T09:47:45.470Z,75.60
2019-04-26T09:50:42.047Z,76.30
2019-04-26T09:53:10.631Z,76.70
2019-04-26T09:55:39.246Z,77.30
2019-04-26T09:58:08.729Z,78.60
2019-04-26T10:00:37.550Z,78.90
2019-04-26T10:03:09.431Z,79.10
2019-04-26T10:05:36.794Z,79.10
2019-04-26T10:08:08.270Z,81.30
2019-04-26T10:10:36.418Z,80.40
2019-04-26T10:13:25.410Z,80.10
2019-04-26T10:16:33.530Z,80.50
2019-04-26T10:19:07.949Z,81.50
2019-04-26T10:21:36.516Z,81.10
2019-04-26T10:24:05.085Z,81.70
2019-04-26T10:26:33.679Z,81.00
2019-04-26T10:29:02.578Z,81.40
2019-04-26T10:31:31.791Z,81.50
2019-04-26T10:34:00.383Z,82.60
2019-04-26T10:36:30.273Z,83.90
2019-04-26T10:38:59.738Z,84.40
2019-04-26T10:41:28.442Z,84.50
2019-04-26T10:43:57.114Z,84.60
2019-04-26T10:46:28.319Z,85.90
2019-04-26T10:49:08.193Z,86.40
2019-04-26T10:51:38.732Z,85.90
2019-04-26T10:54:11.687Z,86.10
2019-04-26T10:56:54.835Z,87.10
2019-04-26T10:59:40.065Z,86.20
2019-04-26T11:02:07.591Z,86.50
2019-04-26T11:04:37.295Z,86.90
2019-04-26T11:07:07.134Z,85.20
2019-04-26T11:09:35.706Z,85.50
2019-04-26T11:12:04.807Z,86.40
2019-04-26T11:14:33.455Z,86.10
2019-04-26T11:17:02.162Z,86.90
2019-04-26T11:19:31.900Z,87.70
2019-04-26T11:22:01.047Z,88.30
2019-04-26T11:24:29.615Z,88.50
2019-04-26T11:26:58.186Z,88.60
2019-04-26T11:29:28.755Z,89.40
2019-04-26T11:31:58.439Z,89.60
2019-04-26T11:34:27.639Z,88.80
2019-04-26T11:36:56.391Z,88.50
2019-04-26T11:39:28.022Z,86.90
2019-04-26T11:41:55.259Z,87.00
2019-04-26T11:44:27.548Z,86.00
2019-04-26T11:46:54.488Z,85.90
2019-04-26T11:49:23.082Z,86.40
2019-04-26T11:51:51.659Z,86.60
2019-04-26T11:54:20.684Z,86.40
2019-04-26T11:56:50.609Z,85.90
2019-04-26T11:59:19.206Z,84.60
2019-04-26T12:01:47.783Z,84.20
2019-04-26T12:04:34.222Z,84.70
2019-04-26T12:07:15.099Z,86.20
2019-04-26T12:09:45.715Z,86.20
2019-04-26T12:12:14.382Z,84.90
2019-04-26T12:14:43.047Z,85.60
2019-04-26T12:17:11.609Z,86.20
2019-04-26T12:19:40.206Z,85.80
2019-04-26T12:22:09.955Z,86.90
2019-04-26T12:24:38.822Z,86.20
2019-04-26T12:27:10.108Z,87.10
2019-04-26T12:29:37.727Z,86.20
2019-04-26T12:32:06.315Z,87.20
2019-04-26T12:34:34.881Z,86.30
2019-04-26T12:37:03.453Z,86.60
2019-04-26T12:39:36.723Z,86.30
2019-04-26T12:42:03.506Z,87.20
2019-04-26T12:45:03.255Z,87.00
2019-04-26T12:47:57.379Z,87.80
2019-04-26T12:50:29.552Z,87.90
2019-04-26T12:52:58.002Z,88.20
2019-04-26T12:55:26.572Z,88.60
2019-04-26T12:57:55.493Z,88.80
2019-04-26T13:00:33.171Z,90.10
2019-04-26T13:03:02.639Z,90.70
2019-04-26T13:05:31.270Z,91.30
2019-04-26T13:07:59.863Z,91.10
2019-04-26T13:10:50.291Z,91.60
2019-04-26T13:13:28.678Z,91.30
2019-04-26T13:16:07.291Z,91.20
2019-04-26T13:18:35.867Z,91.50
2019-04-26T13:21:04.590Z,91.80
2019-04-26T13:23:33.182Z,91.90
2019-04-26T13:26:01.814Z,92.30
2019-04-26T13:28:30.500Z,92.50
2019-04-26T13:31:02.008Z,92.80
2019-04-26T13:33:29.378Z,92.50
2019-04-26T13:36:05.160Z,92.60
2019-04-26T13:38:28.273Z,92.80
2019-04-26T13:40:59.528Z,93.40
2019-04-26T13:43:28.741Z,93.40
2019-04-26T13:46:29.090Z,93.70
2019-04-26T13:49:22.742Z,93.80
2019-04-26T13:51:51.369Z,94.30
2019-04-26T13:54:21.118Z,94.40
2019-04-26T13:56:50.214Z,95.20
2019-04-26T13:59:18.816Z,96.20
2019-04-26T14:01:47.384Z,97.00
2019-04-26T14:04:15.981Z,97.10
2019-04-26T14:06:44.610Z,97.70
2019-04-26T14:09:14.575Z,97.90
2019-04-26T14:11:43.301Z,98.40
2019-04-26T14:14:11.898Z,98.70
2019-04-26T14:16:41.110Z,98.40
2019-04-26T14:19:14.434Z,98.30
2019-04-26T14:21:40.006Z,98.30
2019-04-26T14:24:28.622Z,98.00
2019-04-26T14:27:03.402Z,97.90
2019-04-26T14:29:32.599Z,98.00
2019-04-26T14:32:02.402Z,97.70
2019-04-26T14:34:30.982Z,97.00
2019-04-26T14:37:06.219Z,97.20
2019-04-26T14:39:43.067Z,97.40
2019-04-26T14:42:01.449Z,97.50
2019-04-26T14:44:31.217Z,97.60
2019-04-26T14:47:13.105Z,96.90
2019-04-26T14:49:38.994Z,96.60
2019-04-26T14:52:01.266Z,96.30
2019-04-26T14:54:29.921Z,96.40
2019-04-26T14:57:07.385Z,96.00
2019-04-26T14:59:49.179Z,96.30
2019-04-26T15:02:35.771Z,96.10
2019-04-26T15:05:22.224Z,95.90
2019-04-26T15:07:53.597Z,95.30
2019-04-26T15:10:23.350Z,95.30
2019-04-26T15:12:58.641Z,95.40
2019-04-26T15:15:22.322Z,95.20
2019-04-26T15:17:53.618Z,95.40
2019-04-26T15:20:24.212Z,95.00
2019-04-26T15:22:52.674Z,95.00
2019-04-26T15:25:21.577Z,94.90
2019-04-26T15:27:52.106Z,95.00
2019-04-26T15:30:22.048Z,94.40
2019-04-26T15:32:52.940Z,94.40
2019-04-26T15:35:23.095Z,94.40
2019-04-26T15:37:53.402Z,94.60
2019-04-26T15:40:40.351Z,94.40
2019-04-26T15:43:23.829Z,94.40
2019-04-26T15:46:04.067Z,94.10
2019-04-26T15:48:54.655Z,94.90
2019-04-26T15:51:24.452Z,95.30
2019-04-26T15:53:53.302Z,95.20
2019-04-26T15:56:22.280Z,95.30
2019-04-26T15:58:52.292Z,95.70
2019-04-26T16:01:21.066Z,95.60
2019-04-26T16:03:49.630Z,95.80
2019-04-26T16:06:18.195Z,95.60
2019-04-26T16:08:46.811Z,95.50
2019-04-26T16:11:15.450Z,96.30
2019-04-26T16:13:46.652Z,95.70
2019-04-26T16:16:16.484Z,95.30
2019-04-26T16:18:44.671Z,96.30
2019-04-26T16:21:17.799Z,95.70
2019-04-26T16:23:51.143Z,95.90
2019-04-26T16:26:15.380Z,96.90
2019-04-26T16:29:03.436Z,96.10
2019-04-26T16:31:46.084Z,96.00
2019-04-26T16:34:16.954Z,96.00
2019-04-26T16:36:45.866Z,96.30
2019-04-26T16:39:14.434Z,95.80
2019-04-26T16:41:43.144Z,96.00
2019-04-26T16:44:13.072Z,96.20
2019-04-26T16:46:43.901Z,96.70
2019-04-26T16:49:14.111Z,96.10
2019-04-26T16:51:43.662Z,95.60
2019-04-26T16:54:20.909Z,95.60
2019-04-26T16:56:43.864Z,95.40
2019-04-26T16:59:14.376Z,95.40
2019-04-26T17:01:47.176Z,95.20
2019-04-26T17:04:20.064Z,95.10
2019-04-26T17:06:46.390Z,95.10
2019-04-26T17:09:15.178Z,95.40
2019-04-26T17:12:03.578Z,95.90
2019-04-26T17:14:34.151Z,95.20
2019-04-26T17:17:03.139Z,95.30
2019-04-26T17:19:34.255Z,95.40
2019-04-26T17:22:15.947Z,95.00
2019-04-26T17:24:55.870Z,94.90
2019-04-26T17:27:24.446Z,95.20
2019-04-26T17:29:53.034Z,95.00
2019-04-26T17:32:23.256Z,95.00
2019-04-26T17:34:54.573Z,94.60
2019-04-26T17:37:26.445Z,94.90
2019-04-26T17:39:55.348Z,94.80
2019-04-26T17:42:25.134Z,94.70
2019-04-26T17:44:57.554Z,94.90
2019-04-26T17:47:24.263Z,95.00
2019-04-26T17:49:53.104Z,94.50
2019-04-26T17:52:21.674Z,94.90
2019-04-26T17:54:52.073Z,95.00
2019-04-26T17:57:32.114Z,94.80
2019-04-26T17:59:51.609Z,94.70
2019-04-26T18:02:40.788Z,94.80
2019-04-26T18:04:59.022Z,94.90
2019-04-26T18:07:39.547Z,95.10
2019-04-26T18:09:52.581Z,94.90
2019-04-26T18:12:21.334Z,94.90
2019-04-26T18:14:50.864Z,94.70
2019-04-26T18:17:40.054Z,94.90
2019-04-26T18:20:30.546Z,94.70
2019-04-26T18:23:09.944Z,95.10
2019-04-26T18:25:35.968Z,95.00
2019-04-26T18:28:08.733Z,95.20
2019-04-26T18:30:35.575Z,95.20
2019-04-26T18:33:04.158Z,94.90
2019-04-26T18:35:33.764Z,95.10
2019-04-26T18:38:03.724Z,95.00
2019-04-26T18:40:42.069Z,95.00
2019-04-26T18:43:03.398Z,95.20
2019-04-26T18:45:32.210Z,94.80
2019-04-26T18:48:01.955Z,94.70
2019-04-26T18:50:32.853Z,95.00
2019-04-26T18:53:19.690Z,95.30
2019-04-26T18:55:49.003Z,95.60
2019-04-26T18:58:17.636Z,95.30
2019-04-26T19:00:46.458Z,95.70
2019-04-26T19:03:16.023Z,95.40
2019-04-26T19:05:44.819Z,95.50
2019-04-26T19:08:14.967Z,95.50
2019-04-26T19:10:43.787Z,95.30
2019-04-26T19:13:37.800Z,95.30
2019-04-26T19:16:24.597Z,95.50
2019-04-26T19:18:59.930Z,95.40
2019-04-26T19:21:45.702Z,95.40
2019-04-26T19:24:19.782Z,95.40
2019-04-26T19:26:49.583Z,95.50
2019-04-26T19:29:18.203Z,95.70
2019-04-26T19:31:45.554Z,95.70
2019-04-26T19:34:14.207Z,95.70
2019-04-26T19:36:42.770Z,95.60
2019-04-26T19:39:12.018Z,95.80
2019-04-26T19:41:42.017Z,95.90
2019-04-26T19:44:14.607Z,96.10
2019-04-26T19:47:09.902Z,96.00
2019-04-26T19:49:54.104Z,95.90
2019-04-26T19:52:45.047Z,96.00
2019-04-26T19:55:47.318Z,96.20
2019-04-26T19:58:20.017Z,96.20
2019-04-26T20:00:46.882Z,96.30
2019-04-26T20:03:16.851Z,96.50
2019-04-26T20:05:45.792Z,96.80
2019-04-26T20:08:14.346Z,96.90
2019-04-26T20:10:45.430Z,97.10
2019-04-26T20:13:16.211Z,97.30
2019-04-26T20:15:43.567Z,97.40
2019-04-26T20:18:12.372Z,97.20
2019-04-26T20:20:41.425Z,97.40
2019-04-26T20:23:12.251Z,97.30
2019-04-26T20:25:40.693Z,97.40
2019-04-26T20:28:09.270Z,97.40
2019-04-26T20:31:08.538Z,97.40
2019-04-26T20:33:36.622Z,97.40
2019-04-26T20:36:05.358Z,97.40
2019-04-26T20:38:42.690Z,97.80
2019-04-26T20:41:04.460Z,97.70
2019-04-26T20:43:36.843Z,97.70
2019-04-26T20:46:14.029Z,97.60
2019-04-26T20:48:35.090Z,97.30
2019-04-26T20:51:06.492Z,97.30
2019-04-26T20:53:40.003Z,97.40
2019-04-26T20:56:09.888Z,97.40
2019-04-26T20:58:37.476Z,97.20
2019-04-26T21:01:12.440Z,97.10
2019-04-26T21:03:41.937Z,97.10
2019-04-26T21:06:11.337Z,97.30
2019-04-26T21:08:42.098Z,97.20
2019-04-26T21:11:11.504Z,97.20
2019-04-26T21:13:41.507Z,97.20
2019-04-26T21:16:15.044Z,97.20
2019-04-26T21:18:44.137Z,97.30
2019-04-26T21:21:14.246Z,97.10
2019-04-26T21:23:43.992Z,97.20
2019-04-26T21:26:34.960Z,97.10
2019-04-26T21:29:13.367Z,97.30
2019-04-26T21:32:01.510Z,97.30
2019-04-26T21:34:34.465Z,97.20
2019-04-26T21:37:24.904Z,97.20
2019-04-26T21:40:12.190Z,97.20
2019-04-26T21:42:43.321Z,97.20
2019-04-26T21:45:11.446Z,97.60
2019-04-26T21:47:40.041Z,97.40
2019-04-26T21:50:08.615Z,97.70
2019-04-26T21:52:37.172Z,97.80
2019-04-26T21:55:06.582Z,97.50
2019-04-26T21:57:35.818Z,97.60
2019-04-26T22:00:06.901Z,97.80
2019-04-26T22:07:53.509Z,97.60
2019-04-26T22:10:29.330Z,97.70
2019-04-26T22:13:01.512Z,97.70
2019-04-26T22:15:50.466Z,97.70
2019-04-26T22:18:24.262Z,97.90
2019-04-26T22:20:59.654Z,97.80
2019-04-26T22:23:37.406Z,97.70
2019-04-26T22:26:08.627Z,97.90
2019-04-26T22:28:37.623Z,97.80
2019-04-26T22:31:08.552Z,97.90
2019-04-26T22:33:36.753Z,97.80
2019-04-26T22:36:05.658Z,97.80
2019-04-26T22:38:34.228Z,97.80
2019-04-26T22:41:03.195Z,98.00
2019-04-26T22:44:03.864Z,97.90
2019-04-26T22:46:58.841Z,97.80
2019-04-26T22:49:25.249Z,97.80
2019-04-26T22:51:53.810Z,97.70
2019-04-26T22:54:23.081Z,97.70
2019-04-26T22:56:53.820Z,97.70
2019-04-26T22:59:23.003Z,97.70
2019-04-26T23:01:53.441Z,97.90
2019-04-26T23:04:26.257Z,97.60
2019-04-26T23:06:54.245Z,97.70
2019-04-26T23:09:23.346Z,97.60
2019-04-26T23:11:58.702Z,97.60
2019-04-26T23:14:55.217Z,97.50
2019-04-26T23:17:49.282Z,97.50
2019-04-26T23:20:29.148Z,97.60
2019-04-26T23:23:00.559Z,97.70
2019-04-26T23:25:31.223Z,97.70
2019-04-26T23:27:59.242Z,97.70
2019-04-26T23:30:31.662Z,97.80
2019-04-26T23:32:58.257Z,97.50
2019-04-26T23:35:26.846Z,97.70
2019-04-26T23:37:56.537Z,97.50
2019-04-26T23:40:28.946Z,97.50
2019-04-26T23:42:56.101Z,97.60
2019-04-26T23:45:24.667Z,97.60
2019-04-26T23:47:53.277Z,97.60
2019-04-26T23:50:25.566Z,97.50
2019-04-26T23:52:53.054Z,97.30
2019-04-26T23:55:23.527Z,97.50
2019-04-26T23:57:53.461Z,97.70
